Tazewell, Georgia
Current Conditions -  °F | °C
As of 12:35 PM on Tuesday 21 Oct 2014 (Local Time) from KACJ Reporting Station
Clear Clear  
Wind Chill: 72°   Ceiling: Unl
Heat Index: 72°   Visibility: 10mi
Dew Point: 52°   Wind: 6mph
Humidity: 50%   Direction: 330°NNW
Pressure: 30.03"   Gusts: NA
Location:  32.3534°N, 84.5246°W
Report Text: KACJ 211635Z AUTO 33005KT 10SM CLR 22/11 A3003 RMK AO2
Loading
Personal Weather Stations






























Interactive Weather Map
Tropical Storm Tracking
New forecast layout! Learn more

10-Day Weather Forecast

Advertisements
Track Severe Weather on mobile